sensor_id;sensor_type;location;lat;lon;timestamp;temperature;humidity
13198;DHT22;6664;52.514;13.440;2024-03-23T00:55:40;8.20;88.00
13198;DHT22;6664;52.514;13.440;2024-03-23T00:58:24;8.20;86.00
13198;DHT22;6664;52.514;13.440;2024-03-23T01:01:09;8.20;80.40
13198;DHT22;6664;52.514;13.440;2024-03-23T01:03:53;8.20;76.00
13198;DHT22;6664;52.514;13.440;2024-03-23T01:06:38;8.20;74.70
13198;DHT22;6664;52.514;13.440;2024-03-23T01:09:25;8.20;76.90
13198;DHT22;6664;52.514;13.440;2024-03-23T01:12:10;8.20;72.90
13198;DHT22;6664;52.514;13.440;2024-03-23T01:14:57;8.20;76.10
13198;DHT22;6664;52.514;13.440;2024-03-23T01:17:41;8.20;76.90
13198;DHT22;6664;52.514;13.440;2024-03-23T01:20:26;8.20;77.80
13198;DHT22;6664;52.514;13.440;2024-03-23T01:23:12;8.20;73.30
13198;DHT22;6664;52.514;13.440;2024-03-23T01:25:56;8.20;71.80
13198;DHT22;6664;52.514;13.440;2024-03-23T01:28:43;8.30;74.80
13198;DHT22;6664;52.514;13.440;2024-03-23T01:31:30;8.30;72.90
13198;DHT22;6664;52.514;13.440;2024-03-23T01:34:14;8.30;74.50
13198;DHT22;6664;52.514;13.440;2024-03-23T01:36:59;8.30;74.60
13198;DHT22;6664;52.514;13.440;2024-03-23T01:39:44;8.30;77.10
13198;DHT22;6664;52.514;13.440;2024-03-23T01:42:28;8.40;77.20
13198;DHT22;6664;52.514;13.440;2024-03-23T01:45:13;8.50;75.40
13198;DHT22;6664;52.514;13.440;2024-03-23T01:47:59;8.50;75.10
13198;DHT22;6664;52.514;13.440;2024-03-23T01:50:43;8.40;69.00
13198;DHT22;6664;52.514;13.440;2024-03-23T01:53:28;8.40;70.40
13198;DHT22;6664;52.514;13.440;2024-03-23T01:56:13;8.30;70.80
13198;DHT22;6664;52.514;13.440;2024-03-23T01:58:57;8.30;71.00
13198;DHT22;6664;52.514;13.440;2024-03-23T02:01:42;8.30;72.60
13198;DHT22;6664;52.514;13.440;2024-03-23T02:04:26;8.20;74.00
13198;DHT22;6664;52.514;13.440;2024-03-23T02:07:13;8.20;76.60
13198;DHT22;6664;52.514;13.440;2024-03-23T02:09:58;8.30;76.10
13198;DHT22;6664;52.514;13.440;2024-03-23T02:12:45;8.30;77.10
13198;DHT22;6664;52.514;13.440;2024-03-23T02:15:32;8.20;78.60
13198;DHT22;6664;52.514;13.440;2024-03-23T02:18:18;8.20;78.60
13198;DHT22;6664;52.514;13.440;2024-03-23T02:21:05;8.20;78.10
13198;DHT22;6664;52.514;13.440;2024-03-23T02:23:52;8.30;78.20
13198;DHT22;6664;52.514;13.440;2024-03-23T02:26:36;8.30;77.30
13198;DHT22;6664;52.514;13.440;2024-03-23T02:29:20;8.30;77.70
13198;DHT22;6664;52.514;13.440;2024-03-23T02:32:05;8.40;79.90
13198;DHT22;6664;52.514;13.440;2024-03-23T02:34:50;8.50;78.30
13198;DHT22;6664;52.514;13.440;2024-03-23T02:37:34;8.40;73.30
13198;DHT22;6664;52.514;13.440;2024-03-23T02:40:20;8.30;73.00
13198;DHT22;6664;52.514;13.440;2024-03-23T02:43:05;8.40;74.40
13198;DHT22;6664;52.514;13.440;2024-03-23T02:45:49;8.40;74.70
13198;DHT22;6664;52.514;13.440;2024-03-23T02:48:34;8.50;77.70
13198;DHT22;6664;52.514;13.440;2024-03-23T02:51:20;8.50;77.30
13198;DHT22;6664;52.514;13.440;2024-03-23T02:54:05;8.50;77.80
13198;DHT22;6664;52.514;13.440;2024-03-23T02:56:49;8.50;80.80
13198;DHT22;6664;52.514;13.440;2024-03-23T02:59:34;8.30;81.30
13198;DHT22;6664;52.514;13.440;2024-03-23T03:02:19;8.30;85.90
13198;DHT22;6664;52.514;13.440;2024-03-23T03:05:06;8.20;85.20
13198;DHT22;6664;52.514;13.440;2024-03-23T03:07:52;8.10;87.10
13198;DHT22;6664;52.514;13.440;2024-03-23T03:10:37;8.10;88.30
13198;DHT22;6664;52.514;13.440;2024-03-23T03:13:24;8.20;87.10
13198;DHT22;6664;52.514;13.440;2024-03-23T03:16:12;8.20;85.00
13198;DHT22;6664;52.514;13.440;2024-03-23T03:18:59;8.10;89.30
13198;DHT22;6664;52.514;13.440;2024-03-23T03:21:44;8.20;88.90
13198;DHT22;6664;52.514;13.440;2024-03-23T03:24:29;8.30;91.30
13198;DHT22;6664;52.514;13.440;2024-03-23T03:27:13;8.20;91.60
13198;DHT22;6664;52.514;13.440;2024-03-23T03:29:58;8.10;91.90
13198;DHT22;6664;52.514;13.440;2024-03-23T03:32:45;8.10;95.20
13198;DHT22;6664;52.514;13.440;2024-03-23T03:35:29;7.90;97.60
13198;DHT22;6664;52.514;13.440;2024-03-23T03:38:18;7.90;99.30
13198;DHT22;6664;52.514;13.440;2024-03-23T03:41:05;7.80;97.80
13198;DHT22;6664;52.514;13.440;2024-03-23T03:43:50;7.80;96.90
13198;DHT22;6664;52.514;13.440;2024-03-23T03:46:35;7.70;96.80
13198;DHT22;6664;52.514;13.440;2024-03-23T03:49:19;7.70;96.20
13198;DHT22;6664;52.514;13.440;2024-03-23T03:52:06;7.60;93.20
13198;DHT22;6664;52.514;13.440;2024-03-23T03:54:51;7.50;93.70
13198;DHT22;6664;52.514;13.440;2024-03-23T03:57:35;7.50;95.10
13198;DHT22;6664;52.514;13.440;2024-03-23T04:00:20;7.50;94.90
13198;DHT22;6664;52.514;13.440;2024-03-23T04:03:05;7.50;95.10
13198;DHT22;6664;52.514;13.440;2024-03-23T04:05:53;7.60;95.70
13198;DHT22;6664;52.514;13.440;2024-03-23T04:08:38;7.50;93.20
13198;DHT22;6664;52.514;13.440;2024-03-23T04:11:22;7.50;91.40
13198;DHT22;6664;52.514;13.440;2024-03-23T04:14:07;7.50;90.80
13198;DHT22;6664;52.514;13.440;2024-03-23T04:16:53;7.40;90.10
13198;DHT22;6664;52.514;13.440;2024-03-23T04:19:38;7.40;86.60
13198;DHT22;6664;52.514;13.440;2024-03-23T04:22:23;7.20;89.10
13198;DHT22;6664;52.514;13.440;2024-03-23T04:25:13;7.20;90.20
13198;DHT22;6664;52.514;13.440;2024-03-23T04:27:58;7.20;92.40
13198;DHT22;6664;52.514;13.440;2024-03-23T04:30:42;7.20;92.40
13198;DHT22;6664;52.514;13.440;2024-03-23T04:33:27;7.10;94.70
13198;DHT22;6664;52.514;13.440;2024-03-23T04:36:14;7.00;96.40
13198;DHT22;6664;52.514;13.440;2024-03-23T04:39:00;7.00;97.80
13198;DHT22;6664;52.514;13.440;2024-03-23T04:41:45;6.90;98.70
13198;DHT22;6664;52.514;13.440;2024-03-23T04:44:31;6.90;96.70
13198;DHT22;6664;52.514;13.440;2024-03-23T04:47:16;6.90;93.90
13198;DHT22;6664;52.514;13.440;2024-03-23T04:50:01;6.80;94.60
13198;DHT22;6664;52.514;13.440;2024-03-23T04:52:46;6.80;96.80
13198;DHT22;6664;52.514;13.440;2024-03-23T04:55:31;6.80;98.70
13198;DHT22;6664;52.514;13.440;2024-03-23T04:58:15;6.80;98.30
13198;DHT22;6664;52.514;13.440;2024-03-23T05:01:00;6.80;98.30
13198;DHT22;6664;52.514;13.440;2024-03-23T05:03:44;6.90;98.70
13198;DHT22;6664;52.514;13.440;2024-03-23T05:06:29;6.90;97.70
13198;DHT22;6664;52.514;13.440;2024-03-23T05:09:13;6.90;96.50
13198;DHT22;6664;52.514;13.440;2024-03-23T05:11:58;6.90;96.80
13198;DHT22;6664;52.514;13.440;2024-03-23T05:14:48;6.80;93.80
13198;DHT22;6664;52.514;13.440;2024-03-23T05:17:34;6.80;96.80
13198;DHT22;6664;52.514;13.440;2024-03-23T05:20:19;6.60;97.50
13198;DHT22;6664;52.514;13.440;2024-03-23T05:23:05;6.60;99.10
13198;DHT22;6664;52.514;13.440;2024-03-23T05:25:52;6.70;99.90
13198;DHT22;6664;52.514;13.440;2024-03-23T05:28:38;6.80;99.90
13198;DHT22;6664;52.514;13.440;2024-03-23T05:31:25;6.80;99.90
13198;DHT22;6664;52.514;13.440;2024-03-23T05:34:14;6.90;99.90
13198;DHT22;6664;52.514;13.440;2024-03-23T05:36:59;6.90;97.60
13198;DHT22;6664;52.514;13.440;2024-03-23T05:39:43;6.90;96.90
13198;DHT22;6664;52.514;13.440;2024-03-23T05:42:30;6.90;97.00
13198;DHT22;6664;52.514;13.440;2024-03-23T05:45:14;7.00;98.80
13198;DHT22;6664;52.514;13.440;2024-03-23T05:48:02;7.10;99.30
13198;DHT22;6664;52.514;13.440;2024-03-23T05:50:48;7.20;99.90
13198;DHT22;6664;52.514;13.440;2024-03-23T05:53:33;7.20;99.00
13198;DHT22;6664;52.514;13.440;2024-03-23T05:56:20;7.30;99.80
13198;DHT22;6664;52.514;13.440;2024-03-23T05:59:07;7.30;99.00
13198;DHT22;6664;52.514;13.440;2024-03-23T06:01:52;7.40;98.40
13198;DHT22;6664;52.514;13.440;2024-03-23T06:04:36;7.30;94.50
13198;DHT22;6664;52.514;13.440;2024-03-23T06:07:21;7.30;94.80
13198;DHT22;6664;52.514;13.440;2024-03-23T06:10:06;7.40;96.50
13198;DHT22;6664;52.514;13.440;2024-03-23T06:12:51;7.60;97.20
13198;DHT22;6664;52.514;13.440;2024-03-23T06:15:36;7.70;96.20
13198;DHT22;6664;52.514;13.440;2024-03-23T06:18:22;7.70;92.80
13198;DHT22;6664;52.514;13.440;2024-03-23T06:21:13;7.80;92.30
13198;DHT22;6664;52.514;13.440;2024-03-23T06:23:57;7.90;90.80
13198;DHT22;6664;52.514;13.440;2024-03-23T06:26:44;7.80;84.60
13198;DHT22;6664;52.514;13.440;2024-03-23T06:29:29;7.80;73.00
13198;DHT22;6664;52.514;13.440;2024-03-23T06:32:17;7.60;71.30
13198;DHT22;6664;52.514;13.440;2024-03-23T06:35:02;7.60;71.20
13198;DHT22;6664;52.514;13.440;2024-03-23T06:37:52;7.70;69.40
13198;DHT22;6664;52.514;13.440;2024-03-23T06:40:37;7.70;71.20
13198;DHT22;6664;52.514;13.440;2024-03-23T06:43:23;7.60;66.80
13198;DHT22;6664;52.514;13.440;2024-03-23T06:46:08;7.60;67.60
13198;DHT22;6664;52.514;13.440;2024-03-23T06:48:52;7.60;71.00
13198;DHT22;6664;52.514;13.440;2024-03-23T06:51:37;7.70;67.30
13198;DHT22;6664;52.514;13.440;2024-03-23T06:54:25;7.70;58.10
13198;DHT22;6664;52.514;13.440;2024-03-23T06:57:11;7.60;52.70
13198;DHT22;6664;52.514;13.440;2024-03-23T06:59:58;7.70;56.60
13198;DHT22;6664;52.514;13.440;2024-03-23T07:02:44;7.70;54.40
13198;DHT22;6664;52.514;13.440;2024-03-23T07:05:29;7.70;49.20
13198;DHT22;6664;52.514;13.440;2024-03-23T07:08:13;7.70;50.50
13198;DHT22;6664;52.514;13.440;2024-03-23T07:11:03;7.60;50.70
13198;DHT22;6664;52.514;13.440;2024-03-23T07:13:50;7.60;53.10
13198;DHT22;6664;52.514;13.440;2024-03-23T07:16:35;7.50;51.00
13198;DHT22;6664;52.514;13.440;2024-03-23T07:19:20;7.40;54.00
13198;DHT22;6664;52.514;13.440;2024-03-23T07:22:07;7.40;54.90
13198;DHT22;6664;52.514;13.440;2024-03-23T07:24:52;7.40;54.50
13198;DHT22;6664;52.514;13.440;2024-03-23T07:27:36;7.40;56.20
13198;DHT22;6664;52.514;13.440;2024-03-23T07:30:21;7.40;55.60
13198;DHT22;6664;52.514;13.440;2024-03-23T07:33:05;7.40;53.20
13198;DHT22;6664;52.514;13.440;2024-03-23T07:35:50;7.60;49.50
13198;DHT22;6664;52.514;13.440;2024-03-23T07:38:40;7.70;43.70
13198;DHT22;6664;52.514;13.440;2024-03-23T07:41:27;7.80;40.70
13198;DHT22;6664;52.514;13.440;2024-03-23T07:44:11;8.00;37.60
13198;DHT22;6664;52.514;13.440;2024-03-23T07:46:56;8.40;36.20
13198;DHT22;6664;52.514;13.440;2024-03-23T07:49:41;8.40;35.60
13198;DHT22;6664;52.514;13.440;2024-03-23T07:52:28;8.30;36.10
13198;DHT22;6664;52.514;13.440;2024-03-23T07:55:13;8.20;27.90
13198;DHT22;6664;52.514;13.440;2024-03-23T07:57:59;7.70;29.40
13198;DHT22;6664;52.514;13.440;2024-03-23T08:00:43;7.50;25.40
13198;DHT22;6664;52.514;13.440;2024-03-23T08:03:28;7.50;31.50
13198;DHT22;6664;52.514;13.440;2024-03-23T08:06:17;7.50;36.70
13198;DHT22;6664;52.514;13.440;2024-03-23T08:09:04;7.30;32.30
13198;DHT22;6664;52.514;13.440;2024-03-23T08:11:53;7.30;38.70
13198;DHT22;6664;52.514;13.440;2024-03-23T08:14:40;7.30;41.10
13198;DHT22;6664;52.514;13.440;2024-03-23T08:17:25;7.20;37.20
13198;DHT22;6664;52.514;13.440;2024-03-23T08:20:10;7.20;43.20
13198;DHT22;6664;52.514;13.440;2024-03-23T08:22:55;7.10;43.80
13198;DHT22;6664;52.514;13.440;2024-03-23T08:25:40;7.30;46.70
13198;DHT22;6664;52.514;13.440;2024-03-23T08:28:25;7.30;41.60
13198;DHT22;6664;52.514;13.440;2024-03-23T08:31:11;7.20;35.00
13198;DHT22;6664;52.514;13.440;2024-03-23T08:33:58;7.10;33.70
13198;DHT22;6664;52.514;13.440;2024-03-23T08:36:45;7.30;32.30
13198;DHT22;6664;52.514;13.440;2024-03-23T08:39:30;7.10;34.00
13198;DHT22;6664;52.514;13.440;2024-03-23T08:42:15;7.10;36.30
13198;DHT22;6664;52.514;13.440;2024-03-23T08:45:00;7.00;38.40
13198;DHT22;6664;52.514;13.440;2024-03-23T08:47:44;7.00;45.00
13198;DHT22;6664;52.514;13.440;2024-03-23T08:50:29;6.80;49.30
13198;DHT22;6664;52.514;13.440;2024-03-23T08:53:16;6.60;54.80
13198;DHT22;6664;52.514;13.440;2024-03-23T08:56:01;6.40;46.90
13198;DHT22;6664;52.514;13.440;2024-03-23T08:58:47;6.50;50.10
13198;DHT22;6664;52.514;13.440;2024-03-23T09:01:31;6.40;50.30
13198;DHT22;6664;52.514;13.440;2024-03-23T09:04:16;6.30;44.60
13198;DHT22;6664;52.514;13.440;2024-03-23T09:07:00;6.20;40.70
13198;DHT22;6664;52.514;13.440;2024-03-23T09:09:48;6.20;45.50
13198;DHT22;6664;52.514;13.440;2024-03-23T09:12:33;6.10;45.10
13198;DHT22;6664;52.514;13.440;2024-03-23T09:15:19;6.20;43.10
13198;DHT22;6664;52.514;13.440;2024-03-23T09:18:04;6.00;44.00
13198;DHT22;6664;52.514;13.440;2024-03-23T09:20:48;6.00;47.00
13198;DHT22;6664;52.514;13.440;2024-03-23T09:23:35;6.00;48.20
13198;DHT22;6664;52.514;13.440;2024-03-23T09:26:20;5.90;45.70
13198;DHT22;6664;52.514;13.440;2024-03-23T09:29:04;5.80;48.30
13198;DHT22;6664;52.514;13.440;2024-03-23T09:31:49;5.80;47.80
13198;DHT22;6664;52.514;13.440;2024-03-23T09:34:36;5.60;54.00
13198;DHT22;6664;52.514;13.440;2024-03-23T09:37:21;5.60;56.40
13198;DHT22;6664;52.514;13.440;2024-03-23T09:40:11;5.80;55.80
13198;DHT22;6664;52.514;13.440;2024-03-23T09:42:58;5.60;47.90
13198;DHT22;6664;52.514;13.440;2024-03-23T09:45:46;5.70;47.60
13198;DHT22;6664;52.514;13.440;2024-03-23T09:48:31;5.70;43.90
13198;DHT22;6664;52.514;13.440;2024-03-23T09:51:16;5.70;46.20
13198;DHT22;6664;52.514;13.440;2024-03-23T09:54:05;5.70;42.10
13198;DHT22;6664;52.514;13.440;2024-03-23T09:56:50;5.50;44.40
13198;DHT22;6664;52.514;13.440;2024-03-23T09:59:35;5.40;53.80
13198;DHT22;6664;52.514;13.440;2024-03-23T10:02:21;5.20;51.10
13198;DHT22;6664;52.514;13.440;2024-03-23T10:05:20;5.30;47.80
13198;DHT22;6664;52.514;13.440;2024-03-23T10:11:13;5.20;38.20
13198;DHT22;6664;52.514;13.440;2024-03-23T10:14:00;5.20;33.00
13198;DHT22;6664;52.514;13.440;2024-03-23T10:16:45;5.20;37.20
13198;DHT22;6664;52.514;13.440;2024-03-23T10:19:37;5.20;36.80
13198;DHT22;6664;52.514;13.440;2024-03-23T10:22:23;5.30;38.30
13198;DHT22;6664;52.514;13.440;2024-03-23T10:25:10;5.40;43.70
13198;DHT22;6664;52.514;13.440;2024-03-23T10:27:59;5.40;45.50
13198;DHT22;6664;52.514;13.440;2024-03-23T10:30:45;5.40;38.10
13198;DHT22;6664;52.514;13.440;2024-03-23T10:33:34;5.50;38.50
13198;DHT22;6664;52.514;13.440;2024-03-23T10:36:24;5.40;38.70
13198;DHT22;6664;52.514;13.440;2024-03-23T10:39:13;5.40;42.70
13198;DHT22;6664;52.514;13.440;2024-03-23T10:42:06;5.50;39.80
13198;DHT22;6664;52.514;13.440;2024-03-23T10:44:53;5.30;37.80
13198;DHT22;6664;52.514;13.440;2024-03-23T10:47:43;5.40;37.40
13198;DHT22;6664;52.514;13.440;2024-03-23T10:50:28;5.50;38.80
13198;DHT22;6664;52.514;13.440;2024-03-23T10:53:16;5.40;41.50
13198;DHT22;6664;52.514;13.440;2024-03-23T10:56:04;5.50;50.10
13198;DHT22;6664;52.514;13.440;2024-03-23T10:58:50;5.70;47.70
13198;DHT22;6664;52.514;13.440;2024-03-23T11:01:37;5.80;46.40
13198;DHT22;6664;52.514;13.440;2024-03-23T11:04:40;6.10;40.30
13198;DHT22;6664;52.514;13.440;2024-03-23T11:10:28;6.30;33.90
13198;DHT22;6664;52.514;13.440;2024-03-23T11:13:23;6.30;27.80
13198;DHT22;6664;52.514;13.440;2024-03-23T11:16:21;6.20;17.40
13198;DHT22;6664;52.514;13.440;2024-03-23T11:19:35;6.30;16.30
13198;DHT22;6664;52.514;13.440;2024-03-23T11:22:38;6.70;16.00
13198;DHT22;6664;52.514;13.440;2024-03-23T11:25:31;7.00;11.90
13198;DHT22;6664;52.514;13.440;2024-03-23T11:28:15;7.20;4.90
13198;DHT22;6664;52.514;13.440;2024-03-23T11:31:01;7.00;4.70
13198;DHT22;6664;52.514;13.440;2024-03-23T11:33:47;7.00;1.00
13198;DHT22;6664;52.514;13.440;2024-03-23T11:36:32;7.20;1.00
13198;DHT22;6664;52.514;13.440;2024-03-23T11:39:20;7.30;1.00
13198;DHT22;6664;52.514;13.440;2024-03-23T11:42:05;7.50;1.00
13198;DHT22;6664;52.514;13.440;2024-03-23T11:44:52;7.70;1.00
13198;DHT22;6664;52.514;13.440;2024-03-23T11:47:36;7.90;1.00
13198;DHT22;6664;52.514;13.440;2024-03-23T11:50:21;8.00;1.00
13198;DHT22;6664;52.514;13.440;2024-03-23T11:53:19;8.40;1.00
13198;DHT22;6664;52.514;13.440;2024-03-23T11:56:04;8.90;1.00
13198;DHT22;6664;52.514;13.440;2024-03-23T11:58:49;9.40;1.00
13198;DHT22;6664;52.514;13.440;2024-03-23T12:01:38;9.20;1.00
13198;DHT22;6664;52.514;13.440;2024-03-23T12:04:28;9.30;1.00
13198;DHT22;6664;52.514;13.440;2024-03-23T12:07:19;9.10;1.00
13198;DHT22;6664;52.514;13.440;2024-03-23T12:10:05;9.10;1.00
13198;DHT22;6664;52.514;13.440;2024-03-23T12:13:03;8.60;1.00
13198;DHT22;6664;52.514;13.440;2024-03-23T12:15:50;8.30;1.00
13198;DHT22;6664;52.514;13.440;2024-03-23T12:18:35;8.00;1.00
13198;DHT22;6664;52.514;13.440;2024-03-23T12:21:20;8.20;1.00
13198;DHT22;6664;52.514;13.440;2024-03-23T12:24:07;8.20;1.00
13198;DHT22;6664;52.514;13.440;2024-03-23T12:26:59;8.30;1.00
13198;DHT22;6664;52.514;13.440;2024-03-23T12:29:44;8.20;1.00
13198;DHT22;6664;52.514;13.440;2024-03-23T12:32:30;8.40;1.00
13198;DHT22;6664;52.514;13.440;2024-03-23T12:35:17;8.60;1.00
13198;DHT22;6664;52.514;13.440;2024-03-23T12:38:03;9.00;1.00
13198;DHT22;6664;52.514;13.440;2024-03-23T12:40:50;9.10;1.00
13198;DHT22;6664;52.514;13.440;2024-03-23T12:43:38;9.20;1.00
13198;DHT22;6664;52.514;13.440;2024-03-23T12:46:24;9.50;1.00
13198;DHT22;6664;52.514;13.440;2024-03-23T12:49:10;9.70;1.00
13198;DHT22;6664;52.514;13.440;2024-03-23T12:51:55;10.10;1.00
13198;DHT22;6664;52.514;13.440;2024-03-23T12:54:40;9.80;1.00
13198;DHT22;6664;52.514;13.440;2024-03-23T12:57:25;10.00;1.00
13198;DHT22;6664;52.514;13.440;2024-03-23T13:00:10;10.10;1.00
13198;DHT22;6664;52.514;13.440;2024-03-23T13:02:56;9.40;1.00
13198;DHT22;6664;52.514;13.440;2024-03-23T13:05:40;10.00;1.00
13198;DHT22;6664;52.514;13.440;2024-03-23T13:08:28;11.10;1.00
13198;DHT22;6664;52.514;13.440;2024-03-23T13:11:13;10.90;1.00
13198;DHT22;6664;52.514;13.440;2024-03-23T13:14:00;10.60;1.00
13198;DHT22;6664;52.514;13.440;2024-03-23T13:16:48;11.20;1.00
13198;DHT22;6664;52.514;13.440;2024-03-23T13:19:34;12.20;1.00
13198;DHT22;6664;52.514;13.440;2024-03-23T13:22:19;11.80;1.00
13198;DHT22;6664;52.514;13.440;2024-03-23T13:25:06;11.30;1.00
13198;DHT22;6664;52.514;13.440;2024-03-23T13:27:53;11.60;1.00
13198;DHT22;6664;52.514;13.440;2024-03-23T13:30:37;17.70;1.00
13198;DHT22;6664;52.514;13.440;2024-03-23T13:33:22;27.10;1.00
13198;DHT22;6664;52.514;13.440;2024-03-23T13:36:07;29.20;1.00
13198;DHT22;6664;52.514;13.440;2024-03-23T13:38:52;30.70;1.00
13198;DHT22;6664;52.514;13.440;2024-03-23T13:41:46;31.80;1.00
13198;DHT22;6664;52.514;13.440;2024-03-23T13:44:32;30.10;1.00
13198;DHT22;6664;52.514;13.440;2024-03-23T13:47:21;32.10;1.00
13198;DHT22;6664;52.514;13.440;2024-03-23T13:50:06;31.10;1.00
13198;DHT22;6664;52.514;13.440;2024-03-23T13:52:51;31.70;1.00
13198;DHT22;6664;52.514;13.440;2024-03-23T13:55:43;31.70;1.00
13198;DHT22;6664;52.514;13.440;2024-03-23T13:58:30;28.40;1.00
13198;DHT22;6664;52.514;13.440;2024-03-23T14:01:16;24.40;1.00
13198;DHT22;6664;52.514;13.440;2024-03-23T14:04:01;27.90;1.00
13198;DHT22;6664;52.514;13.440;2024-03-23T14:06:48;30.50;1.00
13198;DHT22;6664;52.514;13.440;2024-03-23T14:09:32;24.20;1.00
13198;DHT22;6664;52.514;13.440;2024-03-23T14:12:17;24.50;1.00
13198;DHT22;6664;52.514;13.440;2024-03-23T14:15:05;23.10;1.00
13198;DHT22;6664;52.514;13.440;2024-03-23T14:17:53;17.70;1.00
13198;DHT22;6664;52.514;13.440;2024-03-23T14:20:38;19.10;1.00
13198;DHT22;6664;52.514;13.440;2024-03-23T14:23:25;20.10;1.00
13198;DHT22;6664;52.514;13.440;2024-03-23T14:26:10;16.30;1.00
13198;DHT22;6664;52.514;13.440;2024-03-23T14:28:55;14.60;1.00
13198;DHT22;6664;52.514;13.440;2024-03-23T14:31:40;12.30;1.00
13198;DHT22;6664;52.514;13.440;2024-03-23T14:34:26;11.30;1.00
13198;DHT22;6664;52.514;13.440;2024-03-23T14:37:13;11.30;1.00
13198;DHT22;6664;52.514;13.440;2024-03-23T14:40:00;11.10;1.00
13198;DHT22;6664;52.514;13.440;2024-03-23T14:42:45;10.70;1.00
13198;DHT22;6664;52.514;13.440;2024-03-23T14:45:33;10.50;1.00
13198;DHT22;6664;52.514;13.440;2024-03-23T14:48:18;9.80;1.00
13198;DHT22;6664;52.514;13.440;2024-03-23T14:51:04;9.50;1.00
13198;DHT22;6664;52.514;13.440;2024-03-23T14:53:51;9.20;1.00
13198;DHT22;6664;52.514;13.440;2024-03-23T14:56:36;9.10;1.00
13198;DHT22;6664;52.514;13.440;2024-03-23T14:59:21;8.40;1.00
13198;DHT22;6664;52.514;13.440;2024-03-23T15:02:07;8.20;1.00
13198;DHT22;6664;52.514;13.440;2024-03-23T15:04:52;7.30;1.00
13198;DHT22;6664;52.514;13.440;2024-03-23T15:07:37;6.60;60.70
13198;DHT22;6664;52.514;13.440;2024-03-23T15:10:22;6.70;78.70
13198;DHT22;6664;52.514;13.440;2024-03-23T15:13:08;7.10;90.70
13198;DHT22;6664;52.514;13.440;2024-03-23T15:15:53;7.60;82.30
13198;DHT22;6664;52.514;13.440;2024-03-23T15:18:38;11.20;38.70
13198;DHT22;6664;52.514;13.440;2024-03-23T15:21:23;13.40;1.00
13198;DHT22;6664;52.514;13.440;2024-03-23T15:24:08;14.40;1.00
13198;DHT22;6664;52.514;13.440;2024-03-23T15:26:55;15.10;1.00
13198;DHT22;6664;52.514;13.440;2024-03-23T15:29:40;14.50;1.00
13198;DHT22;6664;52.514;13.440;2024-03-23T15:32:30;15.00;1.00
13198;DHT22;6664;52.514;13.440;2024-03-23T15:35:14;16.50;1.00
13198;DHT22;6664;52.514;13.440;2024-03-23T15:38:01;16.40;1.00
13198;DHT22;6664;52.514;13.440;2024-03-23T15:40:52;14.80;1.00
13198;DHT22;6664;52.514;13.440;2024-03-23T15:43:37;15.50;1.00
13198;DHT22;6664;52.514;13.440;2024-03-23T15:46:22;16.30;1.00
13198;DHT22;6664;52.514;13.440;2024-03-23T15:49:11;17.90;1.00
13198;DHT22;6664;52.514;13.440;2024-03-23T15:51:59;18.00;1.00
13198;DHT22;6664;52.514;13.440;2024-03-23T15:54:46;18.00;1.00
13198;DHT22;6664;52.514;13.440;2024-03-23T15:57:32;18.00;1.00
13198;DHT22;6664;52.514;13.440;2024-03-23T16:00:19;19.70;1.00
13198;DHT22;6664;52.514;13.440;2024-03-23T16:03:04;19.50;1.00
13198;DHT22;6664;52.514;13.440;2024-03-23T16:05:57;18.90;1.00
13198;DHT22;6664;52.514;13.440;2024-03-23T16:08:41;19.30;1.00
13198;DHT22;6664;52.514;13.440;2024-03-23T16:11:29;18.30;1.00
13198;DHT22;6664;52.514;13.440;2024-03-23T16:14:14;18.70;1.00
13198;DHT22;6664;52.514;13.440;2024-03-23T16:16:58;19.00;1.00
13198;DHT22;6664;52.514;13.440;2024-03-23T16:19:43;17.50;1.00
13198;DHT22;6664;52.514;13.440;2024-03-23T16:22:30;14.90;1.00
13198;DHT22;6664;52.514;13.440;2024-03-23T16:25:14;13.10;1.00
13198;DHT22;6664;52.514;13.440;2024-03-23T16:27:59;11.30;1.00
13198;DHT22;6664;52.514;13.440;2024-03-23T16:30:44;10.50;1.00
13198;DHT22;6664;52.514;13.440;2024-03-23T16:33:29;10.10;1.00
13198;DHT22;6664;52.514;13.440;2024-03-23T16:36:15;9.80;1.00
13198;DHT22;6664;52.514;13.440;2024-03-23T16:39:03;9.80;1.00
13198;DHT22;6664;52.514;13.440;2024-03-23T16:41:48;9.90;1.00
13198;DHT22;6664;52.514;13.440;2024-03-23T16:44:33;9.50;1.00
13198;DHT22;6664;52.514;13.440;2024-03-23T16:47:17;9.00;1.00
13198;DHT22;6664;52.514;13.440;2024-03-23T16:50:05;8.50;1.00
13198;DHT22;6664;52.514;13.440;2024-03-23T16:52:50;8.30;1.00
13198;DHT22;6664;52.514;13.440;2024-03-23T16:55:35;8.10;1.00
13198;DHT22;6664;52.514;13.440;2024-03-23T16:58:19;7.90;1.00
13198;DHT22;6664;52.514;13.440;2024-03-23T17:01:12;7.70;1.00
13198;DHT22;6664;52.514;13.440;2024-03-23T17:04:03;7.60;1.00
13198;DHT22;6664;52.514;13.440;2024-03-23T17:06:48;7.50;1.00
13198;DHT22;6664;52.514;13.440;2024-03-23T17:09:33;7.40;1.00
13198;DHT22;6664;52.514;13.440;2024-03-23T17:12:18;7.20;1.00
13198;DHT22;6664;52.514;13.440;2024-03-23T17:15:08;7.10;1.00
13198;DHT22;6664;52.514;13.440;2024-03-23T17:17:53;7.00;1.00
13198;DHT22;6664;52.514;13.440;2024-03-23T17:20:40;6.90;1.00
13198;DHT22;6664;52.514;13.440;2024-03-23T17:23:26;6.70;1.00
13198;DHT22;6664;52.514;13.440;2024-03-23T17:26:11;6.60;1.00
13198;DHT22;6664;52.514;13.440;2024-03-23T17:28:57;6.40;1.00
13198;DHT22;6664;52.514;13.440;2024-03-23T17:31:42;6.50;1.00
13198;DHT22;6664;52.514;13.440;2024-03-23T17:34:27;6.20;1.00
13198;DHT22;6664;52.514;13.440;2024-03-23T17:37:12;6.20;1.00
13198;DHT22;6664;52.514;13.440;2024-03-23T17:39:56;6.10;1.00
13198;DHT22;6664;52.514;13.440;2024-03-23T17:42:43;6.20;2.20
13198;DHT22;6664;52.514;13.440;2024-03-23T17:45:28;6.10;2.20
13198;DHT22;6664;52.514;13.440;2024-03-23T17:48:12;6.10;3.50
13198;DHT22;6664;52.514;13.440;2024-03-23T17:51:02;6.00;4.50
13198;DHT22;6664;52.514;13.440;2024-03-23T17:53:46;6.00;6.80
13198;DHT22;6664;52.514;13.440;2024-03-23T17:56:31;5.90;6.70
13198;DHT22;6664;52.514;13.440;2024-03-23T17:59:15;5.90;7.70
13198;DHT22;6664;52.514;13.440;2024-03-23T18:02:05;6.00;7.50
13198;DHT22;6664;52.514;13.440;2024-03-23T18:04:51;5.80;10.10
13198;DHT22;6664;52.514;13.440;2024-03-23T18:07:37;5.80;10.00
13198;DHT22;6664;52.514;13.440;2024-03-23T18:10:22;5.90;11.10
13198;DHT22;6664;52.514;13.440;2024-03-23T18:13:07;5.90;11.20
13198;DHT22;6664;52.514;13.440;2024-03-23T18:15:58;6.10;9.80
13198;DHT22;6664;52.514;13.440;2024-03-23T18:18:45;6.30;7.40
13198;DHT22;6664;52.514;13.440;2024-03-23T18:21:31;6.50;4.10
13198;DHT22;6664;52.514;13.440;2024-03-23T18:24:16;6.70;2.60
13198;DHT22;6664;52.514;13.440;2024-03-23T18:27:01;6.70;3.10
13198;DHT22;6664;52.514;13.440;2024-03-23T18:29:46;6.80;1.00
13198;DHT22;6664;52.514;13.440;2024-03-23T18:32:31;6.70;1.00
13198;DHT22;6664;52.514;13.440;2024-03-23T18:35:15;6.60;1.00
13198;DHT22;6664;52.514;13.440;2024-03-23T18:38:03;6.40;1.00
13198;DHT22;6664;52.514;13.440;2024-03-23T18:40:50;6.20;1.00
13198;DHT22;6664;52.514;13.440;2024-03-23T18:43:37;6.10;1.00
13198;DHT22;6664;52.514;13.440;2024-03-23T18:46:22;5.90;1.00
13198;DHT22;6664;52.514;13.440;2024-03-23T18:49:07;5.70;3.10
13198;DHT22;6664;52.514;13.440;2024-03-23T18:51:52;5.60;6.40